sensor_id;sensor_type;location;lat;lon;timestamp;temperature;humidity
22288;DHT22;11312;51.464;6.968;2023-12-20T00:01:01;8.30;99.90
22288;DHT22;11312;51.464;6.968;2023-12-20T00:03:26;8.40;99.90
22288;DHT22;11312;51.464;6.968;2023-12-20T00:05:52;8.30;99.90
22288;DHT22;11312;51.464;6.968;2023-12-20T00:08:18;8.30;99.90
22288;DHT22;11312;51.464;6.968;2023-12-20T00:10:44;8.30;99.90
22288;DHT22;11312;51.464;6.968;2023-12-20T00:13:10;8.20;99.90
22288;DHT22;11312;51.464;6.968;2023-12-20T00:15:36;8.30;99.90
22288;DHT22;11312;51.464;6.968;2023-12-20T00:18:02;8.30;99.90
22288;DHT22;11312;51.464;6.968;2023-12-20T00:20:28;8.20;99.90
22288;DHT22;11312;51.464;6.968;2023-12-20T00:22:56;8.20;99.90
22288;DHT22;11312;51.464;6.968;2023-12-20T00:25:23;8.10;99.90
22288;DHT22;11312;51.464;6.968;2023-12-20T00:27:49;8.10;99.90
22288;DHT22;11312;51.464;6.968;2023-12-20T00:30:14;8.10;99.90
22288;DHT22;11312;51.464;6.968;2023-12-20T00:32:40;8.00;99.90
22288;DHT22;11312;51.464;6.968;2023-12-20T00:35:12;7.90;99.90
22288;DHT22;11312;51.464;6.968;2023-12-20T00:37:37;8.00;99.90
22288;DHT22;11312;51.464;6.968;2023-12-20T00:40:03;8.10;99.90
22288;DHT22;11312;51.464;6.968;2023-12-20T00:42:29;8.00;99.90
22288;DHT22;11312;51.464;6.968;2023-12-20T00:44:54;7.80;99.90
22288;DHT22;11312;51.464;6.968;2023-12-20T00:47:20;8.00;99.90
22288;DHT22;11312;51.464;6.968;2023-12-20T00:49:45;8.00;99.90
22288;DHT22;11312;51.464;6.968;2023-12-20T00:52:11;8.00;99.90
22288;DHT22;11312;51.464;6.968;2023-12-20T00:54:37;7.90;99.90
22288;DHT22;11312;51.464;6.968;2023-12-20T00:57:02;8.00;99.90
22288;DHT22;11312;51.464;6.968;2023-12-20T00:59:28;8.00;99.90
22288;DHT22;11312;51.464;6.968;2023-12-20T01:01:54;8.00;99.90
22288;DHT22;11312;51.464;6.968;2023-12-20T01:04:19;7.80;99.90
22288;DHT22;11312;51.464;6.968;2023-12-20T01:06:45;7.90;99.90
22288;DHT22;11312;51.464;6.968;2023-12-20T01:09:10;8.00;99.90
22288;DHT22;11312;51.464;6.968;2023-12-20T01:11:36;7.80;99.90
22288;DHT22;11312;51.464;6.968;2023-12-20T01:14:02;7.90;99.90
22288;DHT22;11312;51.464;6.968;2023-12-20T01:16:27;7.70;99.90
22288;DHT22;11312;51.464;6.968;2023-12-20T01:18:53;7.80;99.90
22288;DHT22;11312;51.464;6.968;2023-12-20T01:21:18;7.80;99.90
22288;DHT22;11312;51.464;6.968;2023-12-20T01:23:44;7.80;99.90
22288;DHT22;11312;51.464;6.968;2023-12-20T01:26:09;7.60;99.90
22288;DHT22;11312;51.464;6.968;2023-12-20T01:28:35;7.70;99.90
22288;DHT22;11312;51.464;6.968;2023-12-20T01:31:01;7.70;99.90
22288;DHT22;11312;51.464;6.968;2023-12-20T01:33:26;7.70;99.90
22288;DHT22;11312;51.464;6.968;2023-12-20T01:35:52;7.70;99.90
22288;DHT22;11312;51.464;6.968;2023-12-20T01:38:17;7.70;99.90
22288;DHT22;11312;51.464;6.968;2023-12-20T01:40:46;7.70;99.90
22288;DHT22;11312;51.464;6.968;2023-12-20T01:43:11;7.70;99.90
22288;DHT22;11312;51.464;6.968;2023-12-20T01:45:38;7.70;99.90
22288;DHT22;11312;51.464;6.968;2023-12-20T01:48:05;7.60;99.90
22288;DHT22;11312;51.464;6.968;2023-12-20T01:50:31;7.60;99.90
22288;DHT22;11312;51.464;6.968;2023-12-20T01:52:59;7.60;99.90
22288;DHT22;11312;51.464;6.968;2023-12-20T01:55:32;7.50;99.90
22288;DHT22;11312;51.464;6.968;2023-12-20T01:57:59;7.50;99.90
22288;DHT22;11312;51.464;6.968;2023-12-20T02:00:26;7.30;99.90
22288;DHT22;11312;51.464;6.968;2023-12-20T02:02:54;7.20;99.90
22288;DHT22;11312;51.464;6.968;2023-12-20T02:05:21;7.10;99.90
22288;DHT22;11312;51.464;6.968;2023-12-20T02:07:47;7.00;99.90
22288;DHT22;11312;51.464;6.968;2023-12-20T02:10:13;7.00;99.90
22288;DHT22;11312;51.464;6.968;2023-12-20T02:12:40;7.10;99.90
22288;DHT22;11312;51.464;6.968;2023-12-20T02:15:06;7.20;99.90
22288;DHT22;11312;51.464;6.968;2023-12-20T02:17:32;7.20;99.90
22288;DHT22;11312;51.464;6.968;2023-12-20T02:19:59;7.20;99.90
22288;DHT22;11312;51.464;6.968;2023-12-20T02:22:24;7.30;99.90
22288;DHT22;11312;51.464;6.968;2023-12-20T02:24:50;7.20;99.90
22288;DHT22;11312;51.464;6.968;2023-12-20T02:27:18;7.00;99.90
22288;DHT22;11312;51.464;6.968;2023-12-20T02:29:46;7.10;99.90
22288;DHT22;11312;51.464;6.968;2023-12-20T02:32:12;7.20;99.90
22288;DHT22;11312;51.464;6.968;2023-12-20T02:34:38;7.00;99.90
22288;DHT22;11312;51.464;6.968;2023-12-20T02:37:03;6.90;99.90
22288;DHT22;11312;51.464;6.968;2023-12-20T02:39:30;7.00;99.90
22288;DHT22;11312;51.464;6.968;2023-12-20T02:41:55;7.10;99.90
22288;DHT22;11312;51.464;6.968;2023-12-20T02:44:21;7.10;99.90
22288;DHT22;11312;51.464;6.968;2023-12-20T02:46:47;7.10;99.90
22288;DHT22;11312;51.464;6.968;2023-12-20T02:49:12;7.10;99.90
22288;DHT22;11312;51.464;6.968;2023-12-20T02:51:38;7.10;99.90
22288;DHT22;11312;51.464;6.968;2023-12-20T02:54:04;7.20;99.90
22288;DHT22;11312;51.464;6.968;2023-12-20T02:56:30;7.10;99.90
22288;DHT22;11312;51.464;6.968;2023-12-20T02:58:55;7.00;99.90
22288;DHT22;11312;51.464;6.968;2023-12-20T03:01:21;6.80;99.90
22288;DHT22;11312;51.464;6.968;2023-12-20T03:03:46;6.90;99.90
22288;DHT22;11312;51.464;6.968;2023-12-20T03:06:17;6.80;99.90
22288;DHT22;11312;51.464;6.968;2023-12-20T03:08:43;6.80;99.90
22288;DHT22;11312;51.464;6.968;2023-12-20T03:11:08;6.80;99.90
22288;DHT22;11312;51.464;6.968;2023-12-20T03:13:34;6.70;99.90
22288;DHT22;11312;51.464;6.968;2023-12-20T03:15:59;6.70;99.90
22288;DHT22;11312;51.464;6.968;2023-12-20T03:18:25;6.70;99.90
22288;DHT22;11312;51.464;6.968;2023-12-20T03:20:53;6.70;99.90
22288;DHT22;11312;51.464;6.968;2023-12-20T03:23:19;6.70;99.90
22288;DHT22;11312;51.464;6.968;2023-12-20T03:25:44;6.50;99.90
22288;DHT22;11312;51.464;6.968;2023-12-20T03:28:10;6.60;99.90
22288;DHT22;11312;51.464;6.968;2023-12-20T03:30:35;6.40;99.90
22288;DHT22;11312;51.464;6.968;2023-12-20T03:33:01;6.40;99.90
22288;DHT22;11312;51.464;6.968;2023-12-20T03:35:26;6.50;99.90
22288;DHT22;11312;51.464;6.968;2023-12-20T03:37:52;6.50;99.90
22288;DHT22;11312;51.464;6.968;2023-12-20T03:40:18;6.30;99.90
22288;DHT22;11312;51.464;6.968;2023-12-20T03:42:44;6.20;99.90
22288;DHT22;11312;51.464;6.968;2023-12-20T03:45:09;6.30;99.90
22288;DHT22;11312;51.464;6.968;2023-12-20T03:47:35;6.30;99.90
22288;DHT22;11312;51.464;6.968;2023-12-20T03:50:00;6.30;99.90
22288;DHT22;11312;51.464;6.968;2023-12-20T03:52:26;6.40;99.90
22288;DHT22;11312;51.464;6.968;2023-12-20T03:54:52;6.30;99.90
22288;DHT22;11312;51.464;6.968;2023-12-20T03:57:17;6.20;99.90
22288;DHT22;11312;51.464;6.968;2023-12-20T03:59:43;6.10;99.90
22288;DHT22;11312;51.464;6.968;2023-12-20T04:02:08;6.00;99.90
22288;DHT22;11312;51.464;6.968;2023-12-20T04:04:34;6.00;99.90
22288;DHT22;11312;51.464;6.968;2023-12-20T04:07:00;6.00;99.90
22288;DHT22;11312;51.464;6.968;2023-12-20T04:09:25;6.00;99.90
22288;DHT22;11312;51.464;6.968;2023-12-20T04:11:51;6.00;99.90
22288;DHT22;11312;51.464;6.968;2023-12-20T04:14:16;6.10;99.90
22288;DHT22;11312;51.464;6.968;2023-12-20T04:16:42;6.00;99.90
22288;DHT22;11312;51.464;6.968;2023-12-20T04:19:08;6.10;99.90
22288;DHT22;11312;51.464;6.968;2023-12-20T04:21:33;6.10;99.90
22288;DHT22;11312;51.464;6.968;2023-12-20T04:23:59;6.00;99.90
22288;DHT22;11312;51.464;6.968;2023-12-20T04:26:24;6.10;99.90
22288;DHT22;11312;51.464;6.968;2023-12-20T04:28:50;6.10;99.90
22288;DHT22;11312;51.464;6.968;2023-12-20T04:31:15;6.10;99.90
22288;DHT22;11312;51.464;6.968;2023-12-20T04:33:41;6.10;99.90
22288;DHT22;11312;51.464;6.968;2023-12-20T04:36:06;6.20;99.90
22288;DHT22;11312;51.464;6.968;2023-12-20T04:38:34;6.30;99.90
22288;DHT22;11312;51.464;6.968;2023-12-20T04:40:59;6.30;99.90
22288;DHT22;11312;51.464;6.968;2023-12-20T04:43:25;6.30;99.90
22288;DHT22;11312;51.464;6.968;2023-12-20T04:45:51;6.30;99.90
22288;DHT22;11312;51.464;6.968;2023-12-20T04:48:16;6.30;99.90
22288;DHT22;11312;51.464;6.968;2023-12-20T04:50:42;6.20;99.90
22288;DHT22;11312;51.464;6.968;2023-12-20T04:53:07;6.20;99.90
22288;DHT22;11312;51.464;6.968;2023-12-20T04:55:33;6.20;99.90
22288;DHT22;11312;51.464;6.968;2023-12-20T04:57:59;6.30;99.90
22288;DHT22;11312;51.464;6.968;2023-12-20T05:00:24;6.40;99.90
22288;DHT22;11312;51.464;6.968;2023-12-20T05:02:50;6.30;99.90
22288;DHT22;11312;51.464;6.968;2023-12-20T05:05:16;6.40;99.90
22288;DHT22;11312;51.464;6.968;2023-12-20T05:07:43;6.50;99.90
22288;DHT22;11312;51.464;6.968;2023-12-20T05:10:09;6.20;99.90
22288;DHT22;11312;51.464;6.968;2023-12-20T05:12:35;6.30;99.90
22288;DHT22;11312;51.464;6.968;2023-12-20T05:15:01;6.20;99.90
22288;DHT22;11312;51.464;6.968;2023-12-20T05:17:26;6.10;99.90
22288;DHT22;11312;51.464;6.968;2023-12-20T05:19:52;6.20;99.90
22288;DHT22;11312;51.464;6.968;2023-12-20T05:22:19;6.10;99.90
22288;DHT22;11312;51.464;6.968;2023-12-20T05:24:45;6.10;99.90
22288;DHT22;11312;51.464;6.968;2023-12-20T05:27:11;6.00;99.90
22288;DHT22;11312;51.464;6.968;2023-12-20T05:29:37;6.20;99.90
22288;DHT22;11312;51.464;6.968;2023-12-20T05:32:02;6.20;99.90
22288;DHT22;11312;51.464;6.968;2023-12-20T05:34:30;6.10;99.90
22288;DHT22;11312;51.464;6.968;2023-12-20T05:36:56;6.20;99.90
22288;DHT22;11312;51.464;6.968;2023-12-20T05:39:21;6.10;99.90
22288;DHT22;11312;51.464;6.968;2023-12-20T05:41:47;6.10;99.90
22288;DHT22;11312;51.464;6.968;2023-12-20T05:44:13;6.10;99.90
22288;DHT22;11312;51.464;6.968;2023-12-20T05:46:39;6.10;99.90
22288;DHT22;11312;51.464;6.968;2023-12-20T05:49:05;6.00;99.90
22288;DHT22;11312;51.464;6.968;2023-12-20T05:51:31;6.10;99.90
22288;DHT22;11312;51.464;6.968;2023-12-20T05:53:57;6.10;99.90
22288;DHT22;11312;51.464;6.968;2023-12-20T05:56:22;6.10;99.90
22288;DHT22;11312;51.464;6.968;2023-12-20T05:58:48;6.10;99.90
22288;DHT22;11312;51.464;6.968;2023-12-20T06:01:16;6.10;99.90
22288;DHT22;11312;51.464;6.968;2023-12-20T06:03:42;6.10;99.90
22288;DHT22;11312;51.464;6.968;2023-12-20T06:06:09;6.10;99.90
22288;DHT22;11312;51.464;6.968;2023-12-20T06:08:35;6.10;99.90
22288;DHT22;11312;51.464;6.968;2023-12-20T06:11:01;6.10;99.90
22288;DHT22;11312;51.464;6.968;2023-12-20T06:13:26;6.10;99.90
22288;DHT22;11312;51.464;6.968;2023-12-20T06:15:54;6.20;99.90
22288;DHT22;11312;51.464;6.968;2023-12-20T06:18:19;6.20;99.90
22288;DHT22;11312;51.464;6.968;2023-12-20T06:20:45;6.20;99.90
22288;DHT22;11312;51.464;6.968;2023-12-20T06:23:11;6.20;99.90
22288;DHT22;11312;51.464;6.968;2023-12-20T06:25:36;6.20;99.90
22288;DHT22;11312;51.464;6.968;2023-12-20T06:28:02;6.30;99.90
22288;DHT22;11312;51.464;6.968;2023-12-20T06:30:28;6.20;99.90
22288;DHT22;11312;51.464;6.968;2023-12-20T06:32:54;6.30;99.90
22288;DHT22;11312;51.464;6.968;2023-12-20T06:35:20;6.20;99.90
22288;DHT22;11312;51.464;6.968;2023-12-20T06:37:45;6.30;99.90
22288;DHT22;11312;51.464;6.968;2023-12-20T06:40:11;6.30;99.90
22288;DHT22;11312;51.464;6.968;2023-12-20T06:42:37;6.30;99.90
22288;DHT22;11312;51.464;6.968;2023-12-20T06:45:03;6.30;99.90
22288;DHT22;11312;51.464;6.968;2023-12-20T06:47:30;6.30;99.90
22288;DHT22;11312;51.464;6.968;2023-12-20T06:49:56;6.40;99.90
22288;DHT22;11312;51.464;6.968;2023-12-20T06:52:21;6.30;99.90
22288;DHT22;11312;51.464;6.968;2023-12-20T06:54:47;6.40;99.90
22288;DHT22;11312;51.464;6.968;2023-12-20T06:57:13;6.40;99.90
22288;DHT22;11312;51.464;6.968;2023-12-20T06:59:40;6.50;99.90
22288;DHT22;11312;51.464;6.968;2023-12-20T07:02:05;6.40;99.90
22288;DHT22;11312;51.464;6.968;2023-12-20T07:04:31;6.40;99.90
22288;DHT22;11312;51.464;6.968;2023-12-20T07:06:57;6.50;99.90
22288;DHT22;11312;51.464;6.968;2023-12-20T07:09:26;6.40;99.90
22288;DHT22;11312;51.464;6.968;2023-12-20T07:11:52;6.50;99.90
22288;DHT22;11312;51.464;6.968;2023-12-20T07:14:18;6.50;99.90
22288;DHT22;11312;51.464;6.968;2023-12-20T07:16:44;6.40;99.90
22288;DHT22;11312;51.464;6.968;2023-12-20T07:19:09;6.50;99.90
22288;DHT22;11312;51.464;6.968;2023-12-20T07:21:35;6.50;99.90
22288;DHT22;11312;51.464;6.968;2023-12-20T07:24:01;6.60;99.90
22288;DHT22;11312;51.464;6.968;2023-12-20T07:26:26;6.50;99.90
22288;DHT22;11312;51.464;6.968;2023-12-20T07:28:52;6.50;99.90
22288;DHT22;11312;51.464;6.968;2023-12-20T07:31:19;6.50;99.90
22288;DHT22;11312;51.464;6.968;2023-12-20T07:33:45;6.60;99.90
22288;DHT22;11312;51.464;6.968;2023-12-20T07:36:12;6.60;99.90
22288;DHT22;11312;51.464;6.968;2023-12-20T07:38:37;6.60;99.90
22288;DHT22;11312;51.464;6.968;2023-12-20T07:41:03;6.60;99.90
22288;DHT22;11312;51.464;6.968;2023-12-20T07:43:29;6.60;99.90
22288;DHT22;11312;51.464;6.968;2023-12-20T07:45:54;6.70;99.90
22288;DHT22;11312;51.464;6.968;2023-12-20T07:48:20;6.70;99.90
22288;DHT22;11312;51.464;6.968;2023-12-20T07:50:45;6.70;99.90
22288;DHT22;11312;51.464;6.968;2023-12-20T07:53:11;6.70;99.90
22288;DHT22;11312;51.464;6.968;2023-12-20T07:55:38;6.70;99.90
22288;DHT22;11312;51.464;6.968;2023-12-20T07:58:04;6.70;99.90
22288;DHT22;11312;51.464;6.968;2023-12-20T08:00:30;6.70;99.90
22288;DHT22;11312;51.464;6.968;2023-12-20T08:02:57;6.70;99.90
22288;DHT22;11312;51.464;6.968;2023-12-20T08:05:22;6.80;99.90
22288;DHT22;11312;51.464;6.968;2023-12-20T08:07:48;6.70;99.90
22288;DHT22;11312;51.464;6.968;2023-12-20T08:10:14;6.70;99.90
22288;DHT22;11312;51.464;6.968;2023-12-20T08:12:39;6.90;99.90
22288;DHT22;11312;51.464;6.968;2023-12-20T08:15:05;6.80;99.90
22288;DHT22;11312;51.464;6.968;2023-12-20T08:17:31;6.80;99.90
22288;DHT22;11312;51.464;6.968;2023-12-20T08:19:57;6.80;99.90
22288;DHT22;11312;51.464;6.968;2023-12-20T08:22:22;6.80;99.90
22288;DHT22;11312;51.464;6.968;2023-12-20T08:24:48;6.80;99.90
22288;DHT22;11312;51.464;6.968;2023-12-20T08:27:14;6.80;99.90
22288;DHT22;11312;51.464;6.968;2023-12-20T08:29:39;6.80;99.90
22288;DHT22;11312;51.464;6.968;2023-12-20T08:32:05;6.80;99.90
22288;DHT22;11312;51.464;6.968;2023-12-20T08:34:31;6.90;99.90
22288;DHT22;11312;51.464;6.968;2023-12-20T08:36:56;6.90;99.90
22288;DHT22;11312;51.464;6.968;2023-12-20T08:39:22;6.80;99.90
22288;DHT22;11312;51.464;6.968;2023-12-20T08:41:49;6.80;99.90
22288;DHT22;11312;51.464;6.968;2023-12-20T08:44:14;6.90;99.90
22288;DHT22;11312;51.464;6.968;2023-12-20T08:46:41;6.90;99.90
22288;DHT22;11312;51.464;6.968;2023-12-20T08:49:06;6.90;99.90
22288;DHT22;11312;51.464;6.968;2023-12-20T08:51:34;6.80;99.90
22288;DHT22;11312;51.464;6.968;2023-12-20T08:53:59;6.80;99.90
22288;DHT22;11312;51.464;6.968;2023-12-20T08:56:25;6.80;99.90
22288;DHT22;11312;51.464;6.968;2023-12-20T08:58:50;6.90;99.90
22288;DHT22;11312;51.464;6.968;2023-12-20T09:01:16;6.90;99.90
22288;DHT22;11312;51.464;6.968;2023-12-20T09:03:42;6.80;99.90
22288;DHT22;11312;51.464;6.968;2023-12-20T09:06:08;6.80;99.90
22288;DHT22;11312;51.464;6.968;2023-12-20T09:08:34;7.10;99.90
22288;DHT22;11312;51.464;6.968;2023-12-20T09:10:59;7.80;99.90
22288;DHT22;11312;51.464;6.968;2023-12-20T09:13:26;7.40;99.90
22288;DHT22;11312;51.464;6.968;2023-12-20T09:15:55;8.40;99.90
22288;DHT22;11312;51.464;6.968;2023-12-20T09:18:21;7.90;99.90
22288;DHT22;11312;51.464;6.968;2023-12-20T09:20:46;7.30;99.90
22288;DHT22;11312;51.464;6.968;2023-12-20T09:23:12;7.60;99.90
22288;DHT22;11312;51.464;6.968;2023-12-20T09:25:38;7.30;99.90
22288;DHT22;11312;51.464;6.968;2023-12-20T09:28:04;7.20;99.90
22288;DHT22;11312;51.464;6.968;2023-12-20T09:30:30;7.00;99.90
22288;DHT22;11312;51.464;6.968;2023-12-20T09:32:57;7.10;99.90
22288;DHT22;11312;51.464;6.968;2023-12-20T09:35:23;7.00;99.90
22288;DHT22;11312;51.464;6.968;2023-12-20T09:37:49;7.00;99.90
22288;DHT22;11312;51.464;6.968;2023-12-20T09:40:18;6.90;99.90
22288;DHT22;11312;51.464;6.968;2023-12-20T09:43:03;6.90;99.90
22288;DHT22;11312;51.464;6.968;2023-12-20T09:45:30;7.00;99.90
22288;DHT22;11312;51.464;6.968;2023-12-20T09:47:58;6.90;99.90
22288;DHT22;11312;51.464;6.968;2023-12-20T09:50:23;6.90;99.90
22288;DHT22;11312;51.464;6.968;2023-12-20T09:52:51;7.00;99.90
22288;DHT22;11312;51.464;6.968;2023-12-20T09:55:20;6.90;99.90
22288;DHT22;11312;51.464;6.968;2023-12-20T09:57:47;6.90;99.90
22288;DHT22;11312;51.464;6.968;2023-12-20T10:00:14;7.00;99.90
22288;DHT22;11312;51.464;6.968;2023-12-20T10:02:59;7.00;99.90
22288;DHT22;11312;51.464;6.968;2023-12-20T10:05:30;7.00;99.90
22288;DHT22;11312;51.464;6.968;2023-12-20T10:07:56;7.00;99.90
22288;DHT22;11312;51.464;6.968;2023-12-20T10:10:22;7.00;99.90
22288;DHT22;11312;51.464;6.968;2023-12-20T10:13:08;7.00;99.90
22288;DHT22;11312;51.464;6.968;2023-12-20T10:15:35;7.00;99.90
22288;DHT22;11312;51.464;6.968;2023-12-20T10:18:04;7.00;99.90
22288;DHT22;11312;51.464;6.968;2023-12-20T10:20:30;7.00;99.90
22288;DHT22;11312;51.464;6.968;2023-12-20T10:22:57;7.00;99.90
22288;DHT22;11312;51.464;6.968;2023-12-20T10:25:24;7.00;99.90
22288;DHT22;11312;51.464;6.968;2023-12-20T10:28:08;7.10;99.90
22288;DHT22;11312;51.464;6.968;2023-12-20T10:30:33;7.00;99.90
22288;DHT22;11312;51.464;6.968;2023-12-20T10:32:59;7.10;99.90
22288;DHT22;11312;51.464;6.968;2023-12-20T10:35:25;7.10;99.90
22288;DHT22;11312;51.464;6.968;2023-12-20T10:37:55;7.20;99.90
22288;DHT22;11312;51.464;6.968;2023-12-20T10:40:22;7.20;99.90
22288;DHT22;11312;51.464;6.968;2023-12-20T10:42:48;7.30;99.90
22288;DHT22;11312;51.464;6.968;2023-12-20T10:45:15;7.30;99.90
22288;DHT22;11312;51.464;6.968;2023-12-20T10:47:44;7.20;99.90
22288;DHT22;11312;51.464;6.968;2023-12-20T10:50:11;7.20;99.90
22288;DHT22;11312;51.464;6.968;2023-12-20T10:52:37;7.30;99.90
22288;DHT22;11312;51.464;6.968;2023-12-20T10:55:04;7.20;99.90
22288;DHT22;11312;51.464;6.968;2023-12-20T10:57:30;7.20;99.90
22288;DHT22;11312;51.464;6.968;2023-12-20T11:00:00;7.20;99.90
22288;DHT22;11312;51.464;6.968;2023-12-20T11:02:32;7.20;99.90
22288;DHT22;11312;51.464;6.968;2023-12-20T11:07:36;7.10;99.90
22288;DHT22;11312;51.464;6.968;2023-12-20T11:10:23;7.30;99.90
22288;DHT22;11312;51.464;6.968;2023-12-20T11:13:10;7.30;99.90
22288;DHT22;11312;51.464;6.968;2023-12-20T11:15:37;7.30;99.90
22288;DHT22;11312;51.464;6.968;2023-12-20T11:18:04;7.30;99.90
22288;DHT22;11312;51.464;6.968;2023-12-20T11:20:41;7.30;99.90
22288;DHT22;11312;51.464;6.968;2023-12-20T11:23:08;7.20;99.90
22288;DHT22;11312;51.464;6.968;2023-12-20T11:25:52;7.30;99.90
22288;DHT22;11312;51.464;6.968;2023-12-20T11:28:24;7.20;99.90
22288;DHT22;11312;51.464;6.968;2023-12-20T11:30:54;7.30;99.90
22288;DHT22;11312;51.464;6.968;2023-12-20T11:33:24;7.30;99.90
22288;DHT22;11312;51.464;6.968;2023-12-20T11:35:50;7.30;99.90
22288;DHT22;11312;51.464;6.968;2023-12-20T11:38:20;7.40;99.90
22288;DHT22;11312;51.464;6.968;2023-12-20T11:40:48;7.40;99.90
22288;DHT22;11312;51.464;6.968;2023-12-20T11:43:34;7.30;99.90
22288;DHT22;11312;51.464;6.968;2023-12-20T11:46:05;7.30;99.90
22288;DHT22;11312;51.464;6.968;2023-12-20T11:48:39;7.50;99.90
22288;DHT22;11312;51.464;6.968;2023-12-20T11:51:12;7.30;99.90
22288;DHT22;11312;51.464;6.968;2023-12-20T11:53:38;7.30;99.90
22288;DHT22;11312;51.464;6.968;2023-12-20T11:56:06;7.30;99.90
22288;DHT22;11312;51.464;6.968;2023-12-20T11:58:33;7.30;99.90
22288;DHT22;11312;51.464;6.968;2023-12-20T12:00:59;7.30;99.90
22288;DHT22;11312;51.464;6.968;2023-12-20T12:03:24;7.30;99.90
22288;DHT22;11312;51.464;6.968;2023-12-20T12:05:50;7.20;99.90
22288;DHT22;11312;51.464;6.968;2023-12-20T12:08:17;7.20;99.90
22288;DHT22;11312;51.464;6.968;2023-12-20T12:10:44;7.20;99.90
22288;DHT22;11312;51.464;6.968;2023-12-20T12:13:10;7.20;99.90
22288;DHT22;11312;51.464;6.968;2023-12-20T12:15:36;7.20;99.90
22288;DHT22;11312;51.464;6.968;2023-12-20T12:18:03;7.20;99.90
22288;DHT22;11312;51.464;6.968;2023-12-20T12:20:30;7.20;99.90
22288;DHT22;11312;51.464;6.968;2023-12-20T12:23:06;7.30;99.90
22288;DHT22;11312;51.464;6.968;2023-12-20T12:25:34;7.20;99.90
22288;DHT22;11312;51.464;6.968;2023-12-20T12:28:01;7.30;99.90
22288;DHT22;11312;51.464;6.968;2023-12-20T12:30:27;7.40;99.90
22288;DHT22;11312;51.464;6.968;2023-12-20T12:32:55;7.40;99.90
22288;DHT22;11312;51.464;6.968;2023-12-20T12:35:21;7.40;99.90
22288;DHT22;11312;51.464;6.968;2023-12-20T12:37:47;7.50;99.90
22288;DHT22;11312;51.464;6.968;2023-12-20T12:40:17;7.50;99.90
22288;DHT22;11312;51.464;6.968;2023-12-20T12:42:45;7.50;99.90
22288;DHT22;11312;51.464;6.968;2023-12-20T12:45:11;7.50;99.90
22288;DHT22;11312;51.464;6.968;2023-12-20T12:47:37;7.50;99.90
22288;DHT22;11312;51.464;6.968;2023-12-20T12:50:03;7.50;99.90
22288;DHT22;11312;51.464;6.968;2023-12-20T12:52:31;7.50;99.90
22288;DHT22;11312;51.464;6.968;2023-12-20T12:54:56;7.50;99.90
22288;DHT22;11312;51.464;6.968;2023-12-20T12:57:22;7.50;99.90
22288;DHT22;11312;51.464;6.968;2023-12-20T12:59:48;7.60;99.90
22288;DHT22;11312;51.464;6.968;2023-12-20T13:02:14;7.50;99.90
22288;DHT22;11312;51.464;6.968;2023-12-20T13:04:40;7.60;99.90
22288;DHT22;11312;51.464;6.968;2023-12-20T13:07:09;7.60;99.90
22288;DHT22;11312;51.464;6.968;2023-12-20T13:09:38;7.70;99.90
22288;DHT22;11312;51.464;6.968;2023-12-20T13:12:05;7.50;99.90
22288;DHT22;11312;51.464;6.968;2023-12-20T13:14:34;7.50;99.90
22288;DHT22;11312;51.464;6.968;2023-12-20T13:17:02;7.50;99.90
22288;DHT22;11312;51.464;6.968;2023-12-20T13:19:29;7.40;99.90
22288;DHT22;11312;51.464;6.968;2023-12-20T13:21:55;7.40;99.90
22288;DHT22;11312;51.464;6.968;2023-12-20T13:24:21;7.50;99.90
22288;DHT22;11312;51.464;6.968;2023-12-20T13:26:47;7.40;99.90
22288;DHT22;11312;51.464;6.968;2023-12-20T13:29:12;7.40;99.90
22288;DHT22;11312;51.464;6.968;2023-12-20T13:31:38;7.30;99.90
22288;DHT22;11312;51.464;6.968;2023-12-20T13:34:06;7.30;99.90
22288;DHT22;11312;51.464;6.968;2023-12-20T13:36:31;7.20;99.90
22288;DHT22;11312;51.464;6.968;2023-12-20T13:38:58;7.20;99.90
22288;DHT22;11312;51.464;6.968;2023-12-20T13:41:23;7.20;99.90
22288;DHT22;11312;51.464;6.968;2023-12-20T13:43:49;7.20;99.90
22288;DHT22;11312;51.464;6.968;2023-12-20T13:46:15;7.20;99.90
22288;DHT22;11312;51.464;6.968;2023-12-20T13:48:40;7.10;99.90
22288;DHT22;11312;51.464;6.968;2023-12-20T13:51:06;7.20;99.90
22288;DHT22;11312;51.464;6.968;2023-12-20T13:53:33;7.20;99.90
22288;DHT22;11312;51.464;6.968;2023-12-20T13:55:58;7.10;99.90
22288;DHT22;11312;51.464;6.968;2023-12-20T13:58:25;7.20;99.90
22288;DHT22;11312;51.464;6.968;2023-12-20T14:00:51;7.10;99.90
22288;DHT22;11312;51.464;6.968;2023-12-20T14:03:17;7.20;99.90
22288;DHT22;11312;51.464;6.968;2023-12-20T14:05:42;7.20;99.90
22288;DHT22;11312;51.464;6.968;2023-12-20T14:08:08;7.20;99.90
22288;DHT22;11312;51.464;6.968;2023-12-20T14:10:35;7.20;99.90
22288;DHT22;11312;51.464;6.968;2023-12-20T14:13:01;7.20;99.90
22288;DHT22;11312;51.464;6.968;2023-12-20T14:15:26;7.30;99.90
22288;DHT22;11312;51.464;6.968;2023-12-20T14:17:52;7.20;99.90
22288;DHT22;11312;51.464;6.968;2023-12-20T14:20:18;7.20;99.90
22288;DHT22;11312;51.464;6.968;2023-12-20T14:22:45;7.20;99.90
22288;DHT22;11312;51.464;6.968;2023-12-20T14:25:12;7.20;99.90
22288;DHT22;11312;51.464;6.968;2023-12-20T14:27:39;7.10;99.90
22288;DHT22;11312;51.464;6.968;2023-12-20T14:30:06;7.10;99.90
22288;DHT22;11312;51.464;6.968;2023-12-20T14:32:34;7.10;99.90
22288;DHT22;11312;51.464;6.968;2023-12-20T14:35:02;7.10;99.90
22288;DHT22;11312;51.464;6.968;2023-12-20T14:37:29;7.10;99.90
22288;DHT22;11312;51.464;6.968;2023-12-20T14:39:55;7.10;99.90
22288;DHT22;11312;51.464;6.968;2023-12-20T14:42:20;7.10;99.90
22288;DHT22;11312;51.464;6.968;2023-12-20T14:44:47;7.20;99.90
22288;DHT22;11312;51.464;6.968;2023-12-20T14:47:13;7.30;99.90
22288;DHT22;11312;51.464;6.968;2023-12-20T14:49:40;7.20;99.90
22288;DHT22;11312;51.464;6.968;2023-12-20T14:52:06;7.20;99.90
22288;DHT22;11312;51.464;6.968;2023-12-20T14:54:31;7.30;99.90
22288;DHT22;11312;51.464;6.968;2023-12-20T14:56:58;7.30;99.90
22288;DHT22;11312;51.464;6.968;2023-12-20T14:59:24;7.30;99.90
22288;DHT22;11312;51.464;6.968;2023-12-20T15:01:50;7.30;99.90
22288;DHT22;11312;51.464;6.968;2023-12-20T15:04:16;7.30;99.90
22288;DHT22;11312;51.464;6.968;2023-12-20T15:06:41;7.30;99.90
22288;DHT22;11312;51.464;6.968;2023-12-20T15:09:07;7.40;99.90
22288;DHT22;11312;51.464;6.968;2023-12-20T15:11:34;7.30;99.90
22288;DHT22;11312;51.464;6.968;2023-12-20T15:14:00;7.40;99.90
22288;DHT22;11312;51.464;6.968;2023-12-20T15:16:26;7.40;99.90
22288;DHT22;11312;51.464;6.968;2023-12-20T15:18:52;7.40;99.90
22288;DHT22;11312;51.464;6.968;2023-12-20T15:21:22;7.40;99.90
22288;DHT22;11312;51.464;6.968;2023-12-20T15:23:56;8.80;99.90
22288;DHT22;11312;51.464;6.968;2023-12-20T15:26:32;7.50;99.90
22288;DHT22;11312;51.464;6.968;2023-12-20T15:28:58;7.50;99.90
22288;DHT22;11312;51.464;6.968;2023-12-20T15:31:24;7.50;99.90
22288;DHT22;11312;51.464;6.968;2023-12-20T15:33:52;7.50;99.90
22288;DHT22;11312;51.464;6.968;2023-12-20T15:36:17;7.50;99.90
22288;DHT22;11312;51.464;6.968;2023-12-20T15:38:43;7.50;99.90
22288;DHT22;11312;51.464;6.968;2023-12-20T15:41:09;7.60;99.90
22288;DHT22;11312;51.464;6.968;2023-12-20T15:43:34;7.60;99.90